createdAt,value
2022-09-22T00:01:38.588Z,8.10
2022-09-22T00:04:09.322Z,8.11
2022-09-22T00:06:39.548Z,8.14
2022-09-22T00:09:10.750Z,8.13
2022-09-22T00:11:40.634Z,8.13
2022-09-22T00:14:12.265Z,8.07
2022-09-22T00:16:44.988Z,8.02
2022-09-22T00:19:17.168Z,7.92
2022-09-22T00:21:46.046Z,7.98
2022-09-22T00:24:15.467Z,8.06
2022-09-22T00:26:44.116Z,8.04
2022-09-22T00:29:14.511Z,8.06
2022-09-22T00:31:45.759Z,8.12
2022-09-22T00:34:17.844Z,8.11
2022-09-22T00:36:47.073Z,8.09
2022-09-22T00:39:17.226Z,7.85
2022-09-22T00:41:50.421Z,7.65
2022-09-22T00:44:35.983Z,7.62
2022-09-22T00:47:26.769Z,7.55
2022-09-22T00:50:02.010Z,7.40
2022-09-22T00:52:34.284Z,7.41
2022-09-22T00:55:08.193Z,7.39
2022-09-22T00:57:39.749Z,7.49
2022-09-22T01:00:11.051Z,7.59
2022-09-22T01:02:41.195Z,7.63
2022-09-22T01:05:10.318Z,7.62
2022-09-22T01:07:39.245Z,7.60
2022-09-22T01:10:08.564Z,7.52
2022-09-22T01:12:41.190Z,7.43
2022-09-22T01:15:24.110Z,7.23
2022-09-22T01:18:07.217Z,7.09
2022-09-22T01:21:10.461Z,6.96
2022-09-22T01:23:58.465Z,6.78
2022-09-22T01:26:45.304Z,6.78
2022-09-22T01:29:34.993Z,6.77
2022-09-22T01:32:10.390Z,6.79
2022-09-22T01:34:46.780Z,6.73
2022-09-22T01:37:21.854Z,6.79
2022-09-22T01:39:55.330Z,6.88
2022-09-22T01:42:31.443Z,7.04
2022-09-22T01:45:04.132Z,7.03
2022-09-22T01:47:40.727Z,7.00
2022-09-22T01:50:14.660Z,7.02
2022-09-22T01:52:44.600Z,6.95
2022-09-22T01:55:17.698Z,6.86
2022-09-22T01:57:51.759Z,6.84
2022-09-22T02:00:20.912Z,6.88
2022-09-22T02:02:55.220Z,7.00
2022-09-22T02:05:29.994Z,7.17
2022-09-22T02:08:02.735Z,7.25
2022-09-22T02:10:36.304Z,7.24
2022-09-22T02:13:05.214Z,7.22
2022-09-22T02:15:51.092Z,7.18
2022-09-22T02:18:24.103Z,7.19
2022-09-22T02:20:53.617Z,7.21
2022-09-22T02:23:21.929Z,7.25
2022-09-22T02:25:51.263Z,7.24
2022-09-22T02:28:22.466Z,7.08
2022-09-22T02:31:17.476Z,7.03
2022-09-22T02:33:43.026Z,7.07
2022-09-22T02:36:35.408Z,7.03
2022-09-22T02:39:10.128Z,7.04
2022-09-22T02:41:54.240Z,7.17
2022-09-22T02:44:27.519Z,7.22
2022-09-22T02:47:02.102Z,7.24
2022-09-22T02:49:32.515Z,7.24
2022-09-22T02:52:01.089Z,7.30
2022-09-22T02:54:29.409Z,7.36
2022-09-22T02:56:57.745Z,7.44
2022-09-22T02:59:26.047Z,7.48
2022-09-22T03:01:55.851Z,7.46
2022-09-22T03:04:24.278Z,7.49
2022-09-22T03:06:54.154Z,7.46
2022-09-22T03:09:22.515Z,7.44
2022-09-22T03:11:50.884Z,7.34
2022-09-22T03:14:19.260Z,7.24
2022-09-22T03:16:47.586Z,7.22
2022-09-22T03:19:17.278Z,7.24
2022-09-22T03:21:45.650Z,7.25
2022-09-22T03:24:15.393Z,7.26
2022-09-22T03:26:43.717Z,7.34
2022-09-22T03:29:12.082Z,7.02
2022-09-22T03:31:40.475Z,6.82
2022-09-22T03:34:08.790Z,6.90
2022-09-22T03:36:37.110Z,6.95
2022-09-22T03:39:05.587Z,6.93
2022-09-22T03:41:35.688Z,6.90
2022-09-22T03:44:04.407Z,6.87
2022-09-22T03:46:32.847Z,6.77
2022-09-22T03:49:03.167Z,6.80
2022-09-22T03:51:31.976Z,6.83
2022-09-22T03:54:00.484Z,6.84
2022-09-22T03:56:28.874Z,6.84
2022-09-22T03:58:58.512Z,6.78
2022-09-22T04:01:27.158Z,6.72
2022-09-22T04:03:55.485Z,6.76
2022-09-22T04:06:23.916Z,6.71
2022-09-22T04:08:52.227Z,6.59
2022-09-22T04:11:20.850Z,6.42
2022-09-22T04:13:49.222Z,6.40
2022-09-22T04:16:19.003Z,6.38
2022-09-22T04:18:47.966Z,6.38
2022-09-22T04:21:16.459Z,6.37
2022-09-22T04:23:44.781Z,6.39
2022-09-22T04:26:13.598Z,6.45
2022-09-22T04:28:41.943Z,6.49
2022-09-22T04:31:10.417Z,6.48
2022-09-22T04:33:41.203Z,6.45
2022-09-22T04:36:09.781Z,6.43
2022-09-22T04:38:38.426Z,6.44
2022-09-22T04:41:06.840Z,6.34
2022-09-22T04:43:38.087Z,6.16
2022-09-22T04:46:06.724Z,6.00
2022-09-22T04:48:35.083Z,5.95
2022-09-22T04:51:05.038Z,6.01
2022-09-22T04:53:33.321Z,6.10
2022-09-22T04:56:01.980Z,6.06
2022-09-22T04:58:31.462Z,6.06
2022-09-22T05:01:03.910Z,6.13
2022-09-22T05:03:32.664Z,6.17
2022-09-22T05:06:01.107Z,6.21
2022-09-22T05:08:30.812Z,6.23
2022-09-22T05:10:59.846Z,6.22
2022-09-22T05:13:30.286Z,6.27
2022-09-22T05:15:59.487Z,6.30
2022-09-22T05:18:27.938Z,6.34
2022-09-22T05:20:56.240Z,6.39
2022-09-22T05:23:24.559Z,6.40
2022-09-22T05:25:54.839Z,6.26
2022-09-22T05:28:24.346Z,6.17
2022-09-22T05:30:53.569Z,6.04
2022-09-22T05:33:22.093Z,5.92
2022-09-22T05:35:51.283Z,5.91
2022-09-22T05:38:22.659Z,5.83
2022-09-22T05:40:51.058Z,5.86
2022-09-22T05:43:20.755Z,5.92
2022-09-22T05:45:52.414Z,6.05
2022-09-22T05:48:20.850Z,6.10
2022-09-22T05:50:49.113Z,6.15
2022-09-22T05:53:17.867Z,6.17
2022-09-22T05:55:46.189Z,6.23
2022-09-22T05:58:16.787Z,6.32
2022-09-22T06:00:46.660Z,6.40
2022-09-22T06:03:17.833Z,6.51
2022-09-22T06:05:46.249Z,6.60
2022-09-22T06:08:14.609Z,6.64
2022-09-22T06:10:45.199Z,6.63
2022-09-22T06:13:13.507Z,6.46
2022-09-22T06:15:48.732Z,6.16
2022-09-22T06:18:24.170Z,6.05
2022-09-22T06:20:56.027Z,5.90
2022-09-22T06:23:25.834Z,5.90
2022-09-22T06:25:58.377Z,6.14
2022-09-22T06:28:26.831Z,6.39
2022-09-22T06:31:00.572Z,6.56
2022-09-22T06:33:29.250Z,6.67
2022-09-22T06:35:58.269Z,6.72
2022-09-22T06:38:26.611Z,6.75
2022-09-22T06:41:01.246Z,6.64
2022-09-22T06:43:29.726Z,6.60
2022-09-22T06:46:02.763Z,6.63
2022-09-22T06:48:32.008Z,6.79
2022-09-22T06:51:00.307Z,7.01
2022-09-22T06:53:30.039Z,7.12
2022-09-22T06:56:00.308Z,7.36
2022-09-22T06:58:29.695Z,7.55
2022-09-22T07:01:08.926Z,7.62
2022-09-22T07:03:42.680Z,7.61
2022-09-22T07:06:13.976Z,7.66
2022-09-22T07:08:47.274Z,7.81
2022-09-22T07:11:20.805Z,7.95
2022-09-22T07:13:49.124Z,8.07
2022-09-22T07:16:18.937Z,8.17
2022-09-22T07:18:50.618Z,8.29
2022-09-22T07:21:21.057Z,8.39
2022-09-22T07:23:50.923Z,8.50
2022-09-22T07:26:21.896Z,8.56
2022-09-22T07:28:54.032Z,8.65
2022-09-22T07:31:28.476Z,8.73
2022-09-22T07:34:00.233Z,8.79
2022-09-22T07:36:31.003Z,8.85
2022-09-22T07:39:04.455Z,8.91
2022-09-22T07:41:41.479Z,8.96
2022-09-22T07:44:29.226Z,9.01
2022-09-22T07:46:58.555Z,9.09
2022-09-22T07:49:28.696Z,9.14
2022-09-22T07:51:57.516Z,9.19
2022-09-22T07:54:27.268Z,9.26
2022-09-22T07:56:58.419Z,9.32
2022-09-22T07:59:27.734Z,9.40
2022-09-22T08:01:56.204Z,9.45
2022-09-22T08:04:26.707Z,9.53
2022-09-22T08:06:56.876Z,9.61
2022-09-22T08:09:26.373Z,9.66
2022-09-22T08:11:55.097Z,9.73
2022-09-22T08:14:24.095Z,9.75
2022-09-22T08:16:54.020Z,9.82
2022-09-22T08:19:24.775Z,9.88
2022-09-22T08:21:54.971Z,9.96
2022-09-22T08:24:24.672Z,10.04
2022-09-22T08:26:55.679Z,10.13
2022-09-22T08:29:24.740Z,10.22
2022-09-22T08:31:54.291Z,10.33
2022-09-22T08:34:23.129Z,10.41
2022-09-22T08:36:51.665Z,10.52
2022-09-22T08:39:20.245Z,10.63
2022-09-22T08:42:05.913Z,10.73
2022-09-22T08:44:40.734Z,10.83
2022-09-22T08:47:16.823Z,10.90
2022-09-22T08:50:06.191Z,10.96
2022-09-22T08:52:39.958Z,11.02
2022-09-22T08:55:17.229Z,11.06
2022-09-22T08:58:07.385Z,11.07
2022-09-22T09:00:42.909Z,11.11
2022-09-22T09:03:27.622Z,11.21
2022-09-22T09:06:09.163Z,11.30
2022-09-22T09:09:05.767Z,11.37
2022-09-22T09:12:12.116Z,11.50
2022-09-22T09:15:00.509Z,11.58
2022-09-22T09:17:31.595Z,11.62
2022-09-22T09:20:04.364Z,11.69
2022-09-22T09:22:42.711Z,11.82
2022-09-22T09:25:24.332Z,11.90
2022-09-22T09:27:57.327Z,11.98
2022-09-22T09:30:27.380Z,12.14
2022-09-22T09:33:00.594Z,12.28
2022-09-22T09:35:41.315Z,12.38
2022-09-22T09:38:16.163Z,12.41
2022-09-22T09:40:49.514Z,12.46
2022-09-22T09:43:19.668Z,12.47
2022-09-22T09:46:09.895Z,12.54
2022-09-22T09:48:53.931Z,12.66
2022-09-22T09:51:23.716Z,12.74
2022-09-22T09:53:52.673Z,12.79
2022-09-22T09:56:25.923Z,12.92
2022-09-22T09:59:17.120Z,13.04
2022-09-22T10:01:48.830Z,13.11
2022-09-22T10:04:28.296Z,13.24
2022-09-22T10:07:01.459Z,13.41
2022-09-22T10:09:30.614Z,13.56
2022-09-22T10:12:00.822Z,13.67
2022-09-22T10:14:32.437Z,13.78
2022-09-22T10:17:04.022Z,13.88
2022-09-22T10:19:34.574Z,13.99
2022-09-22T10:22:26.582Z,14.07
2022-09-22T10:24:58.434Z,14.16
2022-09-22T10:27:28.214Z,14.24
2022-09-22T10:30:24.832Z,14.33
2022-09-22T10:33:16.226Z,14.44
2022-09-22T10:35:47.399Z,14.52
2022-09-22T10:38:19.764Z,14.54
2022-09-22T10:40:54.474Z,14.62
2022-09-22T10:43:45.238Z,14.77
2022-09-22T10:46:29.154Z,14.92
2022-09-22T10:49:07.340Z,15.05
2022-09-22T10:51:49.175Z,15.14
2022-09-22T10:54:27.201Z,15.23
2022-09-22T10:56:59.021Z,15.29
2022-09-22T10:59:44.186Z,15.35
2022-09-22T11:02:32.792Z,15.42
2022-09-22T11:05:44.070Z,15.49
2022-09-22T11:08:32.765Z,15.61
2022-09-22T11:11:25.555Z,15.68
2022-09-22T11:14:10.732Z,15.79
2022-09-22T11:16:53.381Z,15.90
2022-09-22T11:19:38.077Z,16.00
2022-09-22T11:22:35.442Z,16.09
2022-09-22T11:25:17.991Z,16.16
2022-09-22T11:28:01.642Z,16.27
2022-09-22T11:30:36.207Z,16.39
2022-09-22T11:33:22.822Z,16.54
2022-09-22T11:36:16.950Z,16.67
2022-09-22T11:39:15.841Z,16.78
2022-09-22T11:41:49.299Z,16.89
2022-09-22T11:44:31.291Z,16.99
2022-09-22T11:47:17.168Z,17.08
2022-09-22T11:50:05.257Z,17.21
2022-09-22T11:52:47.172Z,17.31
2022-09-22T11:55:29.647Z,17.39
2022-09-22T11:58:02.155Z,17.43
2022-09-22T12:00:36.598Z,17.44
2022-09-22T12:03:09.669Z,17.45
2022-09-22T12:05:42.605Z,17.52
2022-09-22T12:08:14.616Z,17.58
2022-09-22T12:10:45.959Z,17.63
2022-09-22T12:13:17.774Z,17.66
2022-09-22T12:15:56.258Z,17.71
2022-09-22T12:18:32.335Z,17.79
2022-09-22T12:21:04.695Z,17.83
2022-09-22T12:23:41.717Z,17.89
2022-09-22T12:26:13.186Z,17.97
2022-09-22T12:28:44.028Z,18.02
2022-09-22T12:31:15.385Z,18.08
2022-09-22T12:33:49.891Z,18.16
2022-09-22T12:36:28.530Z,18.24
2022-09-22T12:39:09.434Z,18.30
2022-09-22T12:41:48.193Z,18.36
2022-09-22T12:44:22.788Z,18.44
2022-09-22T12:46:51.807Z,18.47
2022-09-22T12:49:23.047Z,18.49
2022-09-22T12:51:52.046Z,18.51
2022-09-22T12:54:39.429Z,18.53
2022-09-22T12:57:29.755Z,18.57
2022-09-22T13:00:32.109Z,18.59
2022-09-22T13:03:02.517Z,18.68
2022-09-22T13:05:46.871Z,18.76
2022-09-22T13:08:24.007Z,18.79
2022-09-22T13:11:02.013Z,18.78
2022-09-22T13:13:45.262Z,18.76
2022-09-22T13:16:37.380Z,18.69
2022-09-22T13:19:14.846Z,18.66
2022-09-22T13:21:43.317Z,18.62
2022-09-22T13:24:27.337Z,18.61
2022-09-22T13:27:05.698Z,18.60
2022-09-22T13:29:36.474Z,18.59
2022-09-22T13:32:18.699Z,18.59
2022-09-22T13:34:47.999Z,18.56
2022-09-22T13:37:21.553Z,18.52
2022-09-22T13:39:52.531Z,18.58
2022-09-22T13:42:25.010Z,18.69
2022-09-22T13:45:00.494Z,18.71
2022-09-22T13:47:29.750Z,18.73
2022-09-22T13:50:04.198Z,18.78
2022-09-22T13:52:35.940Z,18.79
2022-09-22T13:55:10.095Z,18.80
2022-09-22T13:57:39.763Z,18.81
2022-09-22T14:00:24.398Z,18.82
2022-09-22T14:02:53.761Z,18.81
2022-09-22T14:05:25.840Z,18.84
2022-09-22T14:08:11.222Z,18.89
2022-09-22T14:10:43.414Z,18.91
2022-09-22T14:13:42.905Z,18.93
2022-09-22T14:16:21.582Z,18.93
2022-09-22T14:18:53.485Z,18.94
2022-09-22T14:21:22.877Z,18.98
2022-09-22T14:23:52.852Z,19.02
2022-09-22T14:26:30.338Z,19.04
2022-09-22T14:28:59.562Z,19.06
2022-09-22T14:31:34.141Z,19.07
2022-09-22T14:34:03.862Z,19.14
2022-09-22T14:36:32.247Z,19.14
2022-09-22T14:39:10.273Z,19.11
2022-09-22T14:41:46.276Z,19.13
2022-09-22T14:44:27.398Z,19.13
2022-09-22T14:46:57.684Z,19.09
2022-09-22T14:49:39.448Z,19.01
2022-09-22T14:52:15.927Z,18.96
2022-09-22T14:54:45.643Z,18.88
2022-09-22T14:57:19.051Z,18.82
2022-09-22T15:00:10.947Z,18.78
2022-09-22T15:02:44.895Z,18.75
2022-09-22T15:05:29.423Z,18.75
2022-09-22T15:07:59.397Z,18.76
2022-09-22T15:10:29.968Z,18.74
2022-09-22T15:13:19.653Z,18.73
2022-09-22T15:15:49.961Z,18.69
2022-09-22T15:18:21.039Z,18.68
2022-09-22T15:20:52.275Z,18.69
2022-09-22T15:23:24.105Z,18.67
2022-09-22T15:25:53.827Z,18.63
2022-09-22T15:28:25.148Z,18.56
2022-09-22T15:30:54.137Z,18.50
2022-09-22T15:33:24.091Z,18.46
2022-09-22T15:35:56.531Z,18.40
2022-09-22T15:38:27.934Z,18.31
2022-09-22T15:40:57.414Z,18.24
2022-09-22T15:43:30.825Z,18.16
2022-09-22T15:46:03.466Z,18.10
2022-09-22T15:48:36.979Z,18.08
2022-09-22T15:51:07.521Z,18.04
2022-09-22T15:53:37.727Z,18.02
2022-09-22T15:56:08.560Z,17.98
2022-09-22T15:58:41.890Z,17.95
2022-09-22T16:01:11.170Z,17.89
2022-09-22T16:03:41.635Z,17.84
2022-09-22T16:06:15.192Z,17.81
2022-09-22T16:08:46.206Z,17.75
2022-09-22T16:11:18.692Z,17.67
2022-09-22T16:13:48.461Z,17.59
2022-09-22T16:16:18.237Z,17.52
2022-09-22T16:18:48.402Z,17.43
2022-09-22T16:21:23.235Z,17.38
2022-09-22T16:23:53.594Z,17.31
2022-09-22T16:26:22.604Z,17.26
2022-09-22T16:28:51.863Z,17.18
2022-09-22T16:31:20.546Z,17.12
2022-09-22T16:33:56.118Z,17.06
2022-09-22T16:36:26.964Z,17.00
2022-09-22T16:38:55.833Z,16.89
2022-09-22T16:41:26.138Z,16.79
2022-09-22T16:43:55.611Z,16.71
2022-09-22T16:46:30.888Z,16.64
2022-09-22T16:49:04.214Z,16.57
2022-09-22T16:51:33.332Z,16.49
2022-09-22T16:54:01.803Z,16.39
2022-09-22T16:56:31.987Z,16.30
2022-09-22T16:59:03.059Z,16.17
2022-09-22T17:01:36.566Z,16.07
2022-09-22T17:04:07.766Z,15.96
2022-09-22T17:06:38.249Z,15.87
2022-09-22T17:09:07.919Z,15.77
2022-09-22T17:11:39.175Z,15.69
2022-09-22T17:14:12.391Z,15.60
2022-09-22T17:16:42.498Z,15.51
2022-09-22T17:19:15.555Z,15.46
2022-09-22T17:21:45.385Z,15.40
2022-09-22T17:24:14.894Z,15.35
2022-09-22T17:26:47.288Z,15.29
2022-09-22T17:29:17.262Z,15.19
2022-09-22T17:31:47.280Z,15.10
2022-09-22T17:34:17.203Z,15.02
2022-09-22T17:36:46.740Z,14.93
2022-09-22T17:39:15.410Z,14.86
2022-09-22T17:41:46.717Z,14.76
2022-09-22T17:44:21.034Z,14.68
2022-09-22T17:47:07.840Z,14.58
2022-09-22T17:49:55.695Z,14.47
2022-09-22T17:52:41.803Z,14.34
2022-09-22T17:55:16.490Z,14.26
2022-09-22T17:57:48.521Z,14.22
2022-09-22T18:00:22.010Z,14.19
2022-09-22T18:02:52.671Z,14.02
2022-09-22T18:05:26.776Z,13.87
2022-09-22T18:07:57.771Z,13.67
2022-09-22T18:10:33.346Z,13.59
2022-09-22T18:13:02.466Z,13.48
2022-09-22T18:15:30.826Z,13.25
2022-09-22T18:17:59.147Z,13.06
2022-09-22T18:20:29.655Z,12.95
2022-09-22T18:23:02.221Z,12.83
2022-09-22T18:25:33.842Z,12.77
2022-09-22T18:28:03.944Z,12.80
2022-09-22T18:30:33.816Z,12.84
2022-09-22T18:33:02.449Z,12.86
2022-09-22T18:35:32.201Z,12.75
2022-09-22T18:38:01.039Z,12.64
2022-09-22T18:40:29.838Z,12.51
2022-09-22T18:42:58.366Z,12.46
2022-09-22T18:45:28.142Z,12.35
2022-09-22T18:47:59.252Z,12.24
2022-09-22T18:50:35.714Z,12.11
2022-09-22T18:53:05.674Z,12.01
2022-09-22T18:55:34.041Z,11.94
2022-09-22T18:58:02.699Z,11.92
2022-09-22T19:00:31.546Z,12.02
2022-09-22T19:03:00.292Z,12.10
2022-09-22T19:05:29.168Z,11.99
2022-09-22T19:08:00.756Z,11.89
2022-09-22T19:10:30.450Z,11.83
2022-09-22T19:12:59.676Z,11.82
2022-09-22T19:15:28.178Z,11.94
2022-09-22T19:17:56.527Z,12.01
2022-09-22T19:20:25.797Z,11.96
2022-09-22T19:22:54.376Z,11.98
2022-09-22T19:25:23.586Z,12.02
2022-09-22T19:27:54.132Z,12.09
2022-09-22T19:30:28.522Z,12.06
2022-09-22T19:32:58.279Z,11.99
2022-09-22T19:35:27.575Z,11.88
2022-09-22T19:37:56.366Z,11.80
2022-09-22T19:40:25.432Z,11.77
2022-09-22T19:42:55.719Z,11.76
2022-09-22T19:45:26.608Z,11.68
2022-09-22T19:47:56.992Z,11.62
2022-09-22T19:50:25.836Z,11.63
2022-09-22T19:52:54.426Z,11.59
2022-09-22T19:55:22.945Z,11.53
2022-09-22T19:57:54.234Z,11.39
2022-09-22T20:00:26.745Z,11.31
2022-09-22T20:02:58.681Z,11.23
2022-09-22T20:05:29.353Z,11.16
2022-09-22T20:07:57.729Z,10.97
2022-09-22T20:10:26.279Z,10.94
2022-09-22T20:12:54.616Z,10.89
2022-09-22T20:15:24.957Z,10.82
2022-09-22T20:17:54.047Z,10.86
2022-09-22T20:20:30.181Z,10.83
2022-09-22T20:23:00.444Z,10.72
2022-09-22T20:25:31.542Z,10.73
2022-09-22T20:28:00.416Z,10.88
2022-09-22T20:30:30.265Z,10.97
2022-09-22T20:32:59.284Z,10.99
2022-09-22T20:35:27.771Z,11.02
2022-09-22T20:37:59.260Z,11.04
2022-09-22T20:40:28.962Z,11.03
2022-09-22T20:42:58.107Z,11.02
2022-09-22T20:45:27.233Z,10.91
2022-09-22T20:47:57.111Z,10.82
2022-09-22T20:50:25.436Z,10.76
2022-09-22T20:52:55.402Z,10.67
2022-09-22T20:55:23.835Z,10.50
2022-09-22T20:57:52.542Z,10.47
2022-09-22T21:00:21.723Z,10.43
2022-09-22T21:02:50.150Z,10.46
2022-09-22T21:05:20.045Z,10.50
2022-09-22T21:08:09.825Z,10.51
2022-09-22T21:10:37.978Z,10.49
2022-09-22T21:13:06.360Z,10.45
2022-09-22T21:15:34.819Z,10.48
2022-09-22T21:18:03.189Z,10.48
2022-09-22T21:20:32.949Z,10.20
2022-09-22T21:23:02.106Z,9.97
2022-09-22T21:25:30.452Z,9.94
2022-09-22T21:27:59.012Z,9.96
2022-09-22T21:30:27.368Z,9.88
2022-09-22T21:32:56.089Z,9.79
2022-09-22T21:35:24.444Z,9.82
2022-09-22T21:37:57.162Z,9.89
2022-09-22T21:40:25.550Z,9.96
2022-09-22T21:42:53.913Z,9.99
2022-09-22T21:45:22.448Z,9.97
2022-09-22T21:47:51.179Z,9.93
2022-09-22T21:50:19.816Z,9.81
2022-09-22T21:52:48.324Z,9.84
2022-09-22T21:55:18.749Z,9.72
2022-09-22T21:57:47.089Z,9.64
2022-09-22T22:00:15.741Z,9.62
2022-09-22T22:03:01.968Z,9.59
2022-09-22T22:05:30.986Z,9.43
2022-09-22T22:07:59.597Z,9.40
2022-09-22T22:10:33.022Z,9.34
2022-09-22T22:13:01.644Z,9.34
2022-09-22T22:15:30.179Z,9.36
2022-09-22T22:17:58.569Z,9.38
2022-09-22T22:20:27.847Z,9.33
2022-09-22T22:22:57.176Z,9.38
2022-09-22T22:25:25.628Z,9.45
2022-09-22T22:27:56.742Z,9.49
2022-09-22T22:30:25.603Z,9.53
2022-09-22T22:32:54.135Z,9.52
2022-09-22T22:35:22.870Z,9.52
2022-09-22T22:37:51.187Z,9.56
2022-09-22T22:40:19.587Z,9.56
2022-09-22T22:42:49.162Z,9.55
2022-09-22T22:45:18.835Z,9.45
2022-09-22T22:47:47.214Z,9.35
2022-09-22T22:50:15.673Z,9.31
2022-09-22T22:52:46.118Z,9.24
2022-09-22T22:55:14.752Z,9.30
2022-09-22T22:57:43.022Z,9.30
2022-09-22T23:00:12.893Z,9.27
2022-09-22T23:02:42.885Z,9.32
2022-09-22T23:05:12.155Z,9.32
2022-09-22T23:07:40.527Z,9.29
2022-09-22T23:10:10.500Z,9.24
2022-09-22T23:12:40.250Z,9.21
2022-09-22T23:15:10.502Z,9.17
2022-09-22T23:17:39.164Z,9.12
2022-09-22T23:20:09.800Z,8.97
2022-09-22T23:22:40.922Z,8.93
2022-09-22T23:25:10.099Z,8.99
2022-09-22T23:27:38.682Z,9.01
2022-09-22T23:30:07.908Z,8.96
2022-09-22T23:32:36.389Z,8.85
2022-09-22T23:35:05.155Z,8.76
2022-09-22T23:37:34.831Z,8.70
2022-09-22T23:40:03.488Z,8.74
2022-09-22T23:42:31.824Z,8.74
2022-09-22T23:45:00.243Z,8.77
2022-09-22T23:47:28.708Z,8.80
2022-09-22T23:49:57.211Z,8.81
2022-09-22T23:52:25.544Z,8.77
2022-09-22T23:54:55.203Z,8.69
2022-09-22T23:57:23.524Z,8.55
2022-09-22T23:59:51.990Z,8.47
